createdAt,value
2023-10-10T00:44:32.682Z,98.14
2023-10-10T01:00:32.107Z,99.01
2023-10-10T10:28:36.382Z,79.27
2023-10-10T10:29:37.349Z,78.86
2023-10-10T10:30:37.189Z,79.57
2023-10-10T10:31:39.238Z,78.66
2023-10-10T10:32:37.269Z,79.17
2023-10-10T10:33:37.410Z,78.97
2023-10-10T10:34:37.188Z,79.17
2023-10-10T10:35:37.201Z,78.86
2023-10-10T10:36:37.177Z,78.83
2023-10-10T10:37:46.631Z,78.63
2023-10-10T10:38:51.255Z,78.33
2023-10-10T10:39:37.599Z,78.93
2023-10-10T10:40:46.666Z,77.62
2023-10-10T10:41:56.821Z,77.83
2023-10-10T10:42:57.461Z,78.73
2023-10-10T10:43:37.454Z,78.83
2023-10-10T10:44:37.202Z,77.22
2023-10-10T10:45:37.002Z,77.42
2023-10-10T10:46:37.133Z,77.22
2023-10-10T10:47:37.490Z,76.92
2023-10-10T10:48:37.054Z,76.89
2023-10-10T10:49:36.958Z,76.58
2023-10-10T10:50:37.066Z,77.48
2023-10-10T10:51:36.963Z,76.58
2023-10-10T10:52:36.996Z,76.08
2023-10-10T10:53:37.072Z,76.08
2023-10-10T10:54:37.014Z,75.98
2023-10-10T10:55:36.959Z,76.08
2023-10-10T10:56:37.076Z,76.08
2023-10-10T10:57:49.850Z,76.98
2023-10-10T10:58:36.984Z,76.48
2023-10-10T10:59:37.003Z,76.08
2023-10-10T11:00:37.007Z,76.28
2023-10-10T11:01:36.902Z,76.08
2023-10-10T11:02:37.003Z,75.48
2023-10-10T11:03:36.986Z,76.18
2023-10-10T11:04:36.946Z,76.98
2023-10-10T11:05:36.960Z,76.04
2023-10-10T11:06:36.919Z,76.25
2023-10-10T11:07:36.794Z,75.95
2023-10-10T11:08:42.822Z,75.14
2023-10-10T11:09:36.806Z,75.04
2023-10-10T11:10:36.762Z,75.45
2023-10-10T11:11:36.785Z,75.84
2023-10-10T11:12:36.770Z,75.95
2023-10-10T11:13:36.709Z,75.34
2023-10-10T11:14:36.780Z,75.98
2023-10-10T11:15:36.723Z,75.98
2023-10-10T11:16:36.744Z,75.27
2023-10-10T11:17:36.756Z,76.08
2023-10-10T11:18:36.814Z,77.48
2023-10-10T11:19:36.713Z,77.09
2023-10-10T11:20:36.737Z,77.19
2023-10-10T11:21:36.634Z,76.38
2023-10-10T11:22:36.681Z,76.28
2023-10-10T11:23:36.649Z,76.18
2023-10-10T11:24:36.670Z,75.95
2023-10-10T11:25:36.737Z,75.64
2023-10-10T11:26:36.766Z,75.24
2023-10-10T11:27:36.687Z,75.64
2023-10-10T11:28:36.598Z,74.74
2023-10-10T11:29:36.598Z,75.31
2023-10-10T11:30:36.853Z,75.01
2023-10-10T11:31:36.765Z,74.80
2023-10-10T11:32:36.725Z,74.71
2023-10-10T11:33:36.582Z,75.21
2023-10-10T11:34:37.505Z,74.60
2023-10-10T11:35:36.597Z,74.10
2023-10-10T11:36:36.491Z,74.01
2023-10-10T11:37:36.558Z,74.30
2023-10-10T11:38:36.630Z,74.60
2023-10-10T11:39:36.956Z,75.07
2023-10-10T11:40:36.569Z,74.71
2023-10-10T11:41:36.493Z,73.60
2023-10-10T11:42:36.499Z,74.20
2023-10-10T11:43:36.473Z,74.40
2023-10-10T11:44:36.673Z,74.71
2023-10-10T11:45:36.552Z,74.51
2023-10-10T11:46:36.470Z,73.50
2023-10-10T11:47:36.426Z,74.20
2023-10-10T11:48:36.430Z,74.20
2023-10-10T11:49:37.012Z,74.74
2023-10-10T11:50:36.479Z,74.74
2023-10-10T11:51:36.358Z,74.24
2023-10-10T11:52:36.402Z,74.44
2023-10-10T11:53:36.460Z,75.45
2023-10-10T11:54:36.383Z,74.84
2023-10-10T11:55:36.298Z,75.04
2023-10-10T11:56:36.576Z,75.14
2023-10-10T11:57:36.409Z,75.24
2023-10-10T11:58:36.299Z,74.94
2023-10-10T11:59:36.397Z,74.64
2023-10-10T12:00:36.256Z,74.54
2023-10-10T12:01:36.280Z,74.34
2023-10-10T12:02:36.404Z,74.44
2023-10-10T12:03:36.337Z,74.84
2023-10-10T12:04:36.333Z,74.40
2023-10-10T12:05:36.219Z,74.71
2023-10-10T12:06:36.184Z,74.10
2023-10-10T12:07:36.259Z,74.01
2023-10-10T12:08:36.323Z,74.07
2023-10-10T12:09:36.178Z,73.67
2023-10-10T12:10:36.215Z,73.36
2023-10-10T12:11:36.245Z,73.07
2023-10-10T12:12:36.144Z,72.16
2023-10-10T12:13:36.158Z,73.67
2023-10-10T12:14:36.192Z,73.47
2023-10-10T12:15:36.102Z,74.07
2023-10-10T12:16:36.157Z,73.13
2023-10-10T12:17:36.135Z,72.73
2023-10-10T12:18:36.243Z,72.33
2023-10-10T12:19:36.466Z,71.63
2023-10-10T12:20:36.423Z,71.73
2023-10-10T12:21:36.098Z,71.93
2023-10-10T12:22:36.084Z,71.93
2023-10-10T12:23:36.285Z,71.33
2023-10-10T12:24:36.157Z,71.39
2023-10-10T12:25:36.222Z,71.53
2023-10-10T12:26:36.132Z,71.53
2023-10-10T12:27:36.016Z,71.43
2023-10-10T12:28:35.982Z,71.19
2023-10-10T12:29:36.130Z,71.30
2023-10-10T12:30:36.063Z,71.30
2023-10-10T12:31:36.036Z,70.79
2023-10-10T12:32:36.272Z,71.80
2023-10-10T12:33:36.073Z,71.09
2023-10-10T12:34:35.921Z,70.69
2023-10-10T12:35:35.956Z,71.00
2023-10-10T12:36:35.946Z,70.79
2023-10-10T12:37:35.868Z,70.79
2023-10-10T12:38:35.999Z,71.39
2023-10-10T12:39:35.908Z,71.00
2023-10-10T12:40:35.884Z,71.00
2023-10-10T12:41:35.907Z,70.59
2023-10-10T12:42:35.893Z,70.50
2023-10-10T12:43:35.835Z,71.00
2023-10-10T12:44:35.880Z,70.19
2023-10-10T12:45:35.811Z,70.39
2023-10-10T12:46:35.860Z,71.09
2023-10-10T12:47:35.968Z,70.79
2023-10-10T12:48:35.803Z,71.93
2023-10-10T12:49:36.965Z,71.63
2023-10-10T12:50:35.880Z,72.03
2023-10-10T12:51:35.814Z,71.73
2023-10-10T12:52:35.735Z,70.93
2023-10-10T12:53:35.791Z,71.53
2023-10-10T12:54:35.790Z,71.53
2023-10-10T12:55:35.679Z,71.53
2023-10-10T12:56:35.868Z,71.73
2023-10-10T12:57:35.757Z,71.96
2023-10-10T12:58:35.718Z,72.43
2023-10-10T12:59:35.774Z,72.16
2023-10-10T13:00:35.741Z,72.86
2023-10-10T13:01:35.692Z,72.36
2023-10-10T13:02:35.804Z,72.27
2023-10-10T13:03:35.771Z,72.86
2023-10-10T13:04:36.385Z,71.66
2023-10-10T13:05:35.651Z,71.56
2023-10-10T13:06:35.605Z,72.47
2023-10-10T13:07:35.695Z,72.36
2023-10-10T13:08:36.534Z,71.56
2023-10-10T13:09:35.575Z,72.06
2023-10-10T13:10:35.616Z,71.36
2023-10-10T13:11:35.677Z,71.46
2023-10-10T13:12:35.590Z,71.36
2023-10-10T13:13:35.520Z,71.86
2023-10-10T13:14:35.607Z,71.86
2023-10-10T13:15:35.546Z,72.16
2023-10-10T13:16:35.560Z,72.27
2023-10-10T13:17:35.621Z,72.63
2023-10-10T13:18:35.555Z,71.86
2023-10-10T13:19:35.494Z,71.36
2023-10-10T13:20:35.615Z,71.86
2023-10-10T13:21:35.433Z,72.06
2023-10-10T13:23:28.737Z,71.73
2023-10-10T13:24:29.779Z,71.83
2023-10-10T13:25:29.391Z,72.13
2023-10-10T13:26:29.480Z,71.73
2023-10-10T13:27:29.468Z,71.33
2023-10-10T13:28:29.369Z,71.43
2023-10-10T13:29:29.423Z,71.43
2023-10-10T13:30:29.369Z,71.12
2023-10-10T13:31:29.366Z,71.23
2023-10-10T13:32:29.506Z,70.32
2023-10-10T13:33:29.408Z,70.73
2023-10-10T13:34:30.193Z,71.33
2023-10-10T13:35:29.385Z,70.73
2023-10-10T14:36:45.162Z,63.98
2023-10-10T14:37:58.355Z,64.18
2023-10-10T14:38:45.979Z,64.28
2023-10-10T14:39:45.968Z,63.98
2023-10-10T14:40:45.798Z,64.69
2023-10-10T14:41:45.848Z,64.28
2023-10-10T14:42:45.823Z,64.78
2023-10-10T14:43:46.165Z,64.69
2023-10-10T14:44:45.756Z,64.31
2023-10-10T14:45:45.844Z,64.72
2023-10-10T14:46:45.776Z,65.12
2023-10-10T14:47:45.876Z,64.81
2023-10-10T15:49:35.120Z,71.50
2023-10-10T15:50:18.755Z,71.60
2023-10-10T15:51:18.634Z,71.70
2023-10-10T15:52:18.452Z,71.60
2023-10-10T15:53:18.412Z,71.70
2023-10-10T15:54:18.583Z,71.60
2023-10-10T15:55:18.457Z,71.90
2023-10-10T15:56:18.519Z,72.00
2023-10-10T15:57:18.449Z,71.80
2023-10-10T15:58:18.454Z,72.00
2023-10-10T15:59:18.563Z,71.60
2023-10-10T16:00:18.434Z,71.50
2023-10-10T16:01:18.430Z,71.90
2023-10-10T16:02:18.367Z,71.80
2023-10-10T16:03:18.455Z,71.80
2023-10-10T16:04:18.395Z,71.80
2023-10-10T16:05:19.321Z,72.00
2023-10-10T16:06:18.410Z,72.00
2023-10-10T16:07:18.501Z,72.10
2023-10-10T16:08:18.292Z,72.00
2023-10-10T16:09:18.486Z,71.90
2023-10-10T16:10:18.272Z,71.70
2023-10-10T16:11:18.280Z,71.90
2023-10-10T16:12:18.263Z,72.00
2023-10-10T16:13:18.222Z,72.40
2023-10-10T16:14:18.292Z,72.40
2023-10-10T16:15:30.465Z,72.44
2023-10-10T16:16:18.289Z,72.53
2023-10-10T16:17:18.185Z,72.74
2023-10-10T16:18:18.266Z,72.94
2023-10-10T16:19:18.386Z,72.64
2023-10-10T16:20:18.249Z,72.84
2023-10-10T16:21:18.168Z,72.53
2023-10-10T16:22:18.147Z,72.74
2023-10-10T16:23:18.265Z,72.74
2023-10-10T16:24:18.202Z,73.04
2023-10-10T16:25:18.145Z,73.14
2023-10-10T16:26:18.092Z,72.94
2023-10-10T16:27:18.100Z,72.74
2023-10-10T16:28:18.385Z,72.84
2023-10-10T16:29:18.354Z,73.04
2023-10-10T16:30:18.248Z,72.84
2023-10-10T16:31:18.169Z,73.04
2023-10-10T16:32:18.019Z,73.14
2023-10-10T16:33:18.092Z,73.54
2023-10-10T16:34:18.111Z,73.44
2023-10-10T16:35:18.038Z,73.14
2023-10-10T16:36:18.043Z,73.34
2023-10-10T16:37:18.086Z,73.14
2023-10-10T16:38:17.958Z,73.34
2023-10-10T16:39:18.157Z,73.34
2023-10-10T16:40:17.947Z,73.44
2023-10-10T16:41:17.953Z,73.88
2023-10-10T16:42:17.953Z,73.58
2023-10-10T16:43:17.918Z,73.98
2023-10-10T16:44:17.982Z,73.98
2023-10-10T16:45:18.019Z,74.08
2023-10-10T16:46:18.006Z,74.18
2023-10-10T16:47:19.481Z,74.18
2023-10-10T16:48:18.036Z,74.28
2023-10-10T16:49:17.973Z,74.18
2023-10-10T16:50:17.865Z,74.78
2023-10-10T16:51:17.828Z,74.48
2023-10-10T16:52:18.123Z,74.58
2023-10-10T16:53:17.811Z,74.68
2023-10-10T16:54:18.014Z,74.62
2023-10-10T16:55:17.792Z,74.72
2023-10-10T16:56:17.779Z,74.92
2023-10-10T16:57:18.107Z,74.92
2023-10-10T16:58:17.970Z,74.82
2023-10-10T16:59:17.928Z,75.12
2023-10-10T17:00:17.884Z,75.12
2023-10-10T17:01:17.979Z,75.22
2023-10-10T17:02:17.748Z,75.32
2023-10-10T17:03:18.089Z,75.52
2023-10-10T17:04:20.280Z,75.52
2023-10-10T17:05:17.748Z,75.22
2023-10-10T17:06:17.837Z,75.62
2023-10-10T17:07:17.717Z,75.42
2023-10-10T17:08:17.705Z,75.92
2023-10-10T17:09:17.875Z,75.62
2023-10-10T17:10:17.718Z,75.72
2023-10-10T17:11:17.667Z,76.03
2023-10-10T17:12:17.726Z,76.12
2023-10-10T17:13:17.706Z,76.06
2023-10-10T17:14:17.644Z,76.06
2023-10-10T17:15:17.644Z,76.16
2023-10-10T17:16:21.439Z,76.26
2023-10-10T17:17:17.741Z,76.76
2023-10-10T17:18:17.769Z,76.56
2023-10-10T17:19:17.768Z,76.36
2023-10-10T17:20:17.595Z,76.46
2023-10-10T17:21:17.577Z,76.46
2023-10-10T17:22:17.569Z,76.46
2023-10-10T17:23:17.576Z,76.26
2023-10-10T17:24:28.022Z,76.76
2023-10-10T17:25:25.723Z,76.67
2023-10-10T17:26:17.715Z,76.87
2023-10-10T17:29:41.406Z,76.97
2023-10-10T17:30:43.068Z,76.97
2023-10-10T17:31:42.280Z,77.07
2023-10-10T17:32:42.009Z,77.07
2023-10-10T17:34:57.472Z,76.87
2023-10-10T17:35:58.326Z,77.07
2023-10-10T17:36:58.253Z,77.17
2023-10-10T17:37:58.156Z,77.27
2023-10-10T17:38:58.255Z,77.37
2023-10-10T17:39:58.189Z,77.17
2023-10-10T17:40:58.114Z,77.27
2023-10-10T17:41:58.119Z,77.47
2023-10-10T17:42:58.359Z,77.47
2023-10-10T17:43:58.101Z,77.47
2023-10-10T17:44:58.115Z,77.27
2023-10-10T17:45:58.282Z,77.77
2023-10-10T17:46:58.188Z,77.77
2023-10-10T17:47:58.141Z,77.67
2023-10-10T17:48:58.102Z,78.11
2023-10-10T17:49:58.060Z,78.31
2023-10-10T17:50:58.100Z,78.01
2023-10-10T17:51:58.234Z,78.01
2023-10-10T17:52:58.025Z,78.21
2023-10-10T17:53:58.048Z,78.61
2023-10-10T17:54:57.986Z,78.51
2023-10-10T17:55:57.947Z,78.51
2023-10-10T17:56:57.985Z,78.21
2023-10-10T17:57:57.991Z,79.02
2023-10-10T17:58:57.959Z,79.11
2023-10-10T17:59:57.940Z,79.25
2023-10-10T18:00:58.054Z,79.05
2023-10-10T18:01:57.957Z,78.85
2023-10-10T18:02:57.993Z,79.25
2023-10-10T18:03:58.064Z,79.25
2023-10-10T18:04:57.930Z,79.66
2023-10-10T18:05:57.951Z,79.16
2023-10-10T18:06:58.038Z,79.36
2023-10-10T18:07:57.872Z,79.25
2023-10-10T18:08:57.874Z,79.36
2023-10-10T18:09:57.854Z,79.25
2023-10-10T18:10:58.127Z,79.36
2023-10-10T18:11:57.860Z,79.46
2023-10-10T18:12:57.874Z,79.25
2023-10-10T18:13:57.782Z,79.76
2023-10-10T18:14:57.802Z,79.36
2023-10-10T18:15:57.837Z,79.46
2023-10-10T18:16:57.978Z,79.36
2023-10-10T18:17:57.813Z,79.36
2023-10-10T18:18:57.799Z,79.46
2023-10-10T18:19:57.744Z,79.56
2023-10-10T18:20:57.709Z,79.36
2023-10-10T18:21:57.760Z,79.76
2023-10-10T18:22:57.669Z,79.66
2023-10-10T18:23:57.829Z,79.96
2023-10-10T18:24:57.655Z,79.66
2023-10-10T18:25:57.624Z,79.76
2023-10-10T18:26:57.725Z,79.80
2023-10-10T18:27:57.676Z,80.10
2023-10-10T18:28:57.625Z,79.80
2023-10-10T18:29:57.611Z,79.80
2023-10-10T18:30:57.618Z,79.90
2023-10-10T18:31:57.996Z,80.10
2023-10-10T18:32:57.639Z,80.00
2023-10-10T18:33:57.712Z,79.80
2023-10-10T18:34:57.569Z,80.40
2023-10-10T18:35:57.582Z,80.50
2023-10-10T18:36:58.032Z,80.90
2023-10-10T18:37:59.732Z,80.80
2023-10-10T18:38:57.569Z,80.80
2023-10-10T18:39:57.570Z,80.50
2023-10-10T18:40:57.506Z,80.60
2023-10-10T18:41:57.496Z,80.50
2023-10-10T18:42:57.561Z,80.64
2023-10-10T18:43:57.451Z,80.64
2023-10-10T18:44:57.462Z,80.64
2023-10-10T18:45:57.461Z,80.84
2023-10-10T18:46:58.280Z,80.64
2023-10-10T18:47:57.483Z,80.64
2023-10-10T18:48:57.602Z,80.64
2023-10-10T18:49:57.409Z,80.74
2023-10-10T18:50:57.439Z,80.94
2023-10-10T18:51:57.429Z,80.94
2023-10-10T18:52:57.341Z,81.15
2023-10-10T18:53:57.378Z,81.24
2023-10-10T18:54:57.329Z,81.04
2023-10-10T18:55:57.303Z,81.04
2023-10-10T18:56:57.350Z,81.18
2023-10-10T18:57:57.434Z,81.28
2023-10-10T18:58:57.280Z,81.38
2023-10-10T18:59:57.331Z,81.38
2023-10-10T19:00:57.320Z,81.79
2023-10-10T19:01:57.271Z,81.48
2023-10-10T19:02:58.010Z,81.59
2023-10-10T19:03:57.481Z,81.89
2023-10-10T19:04:57.213Z,81.59
2023-10-10T19:05:57.525Z,81.18
2023-10-10T19:06:57.206Z,81.28
2023-10-10T19:07:57.289Z,81.48
2023-10-10T19:08:57.189Z,81.38
2023-10-10T19:09:57.202Z,81.38
2023-10-10T19:10:57.228Z,81.48
2023-10-10T19:11:57.243Z,81.28
2023-10-10T19:12:57.146Z,81.38
2023-10-10T19:13:57.163Z,81.48
2023-10-10T19:14:57.151Z,81.38
2023-10-10T19:15:57.129Z,81.38
2023-10-10T19:16:57.213Z,81.28
2023-10-10T19:17:57.487Z,81.08
2023-10-10T19:18:57.238Z,81.08
2023-10-10T19:19:57.046Z,81.18
2023-10-10T19:20:57.084Z,81.08
2023-10-10T19:21:57.239Z,81.08
2023-10-10T19:22:57.069Z,81.08
2023-10-10T19:23:57.175Z,81.08
2023-10-10T19:24:56.993Z,81.18
2023-10-10T19:25:56.992Z,81.28
2023-10-10T19:26:57.026Z,81.38
2023-10-10T19:27:57.054Z,81.42
2023-10-10T19:28:57.000Z,81.42
2023-10-10T19:29:57.351Z,81.52
2023-10-10T19:30:57.056Z,81.52
2023-10-10T19:31:56.942Z,81.52
2023-10-10T19:32:56.959Z,81.62
2023-10-10T19:33:57.051Z,81.73
2023-10-10T19:34:57.136Z,81.93
2023-10-10T19:35:57.090Z,81.82
2023-10-10T19:36:56.894Z,81.73
2023-10-10T19:37:56.872Z,82.23
2023-10-10T19:38:56.898Z,82.03
2023-10-10T19:39:56.950Z,82.03
2023-10-10T19:40:56.843Z,82.13
2023-10-10T19:41:56.946Z,82.37
2023-10-10T19:42:56.818Z,82.37
2023-10-10T19:43:56.936Z,82.37
2023-10-10T19:44:57.440Z,82.47
2023-10-10T19:45:56.837Z,82.78
2023-10-10T19:46:56.855Z,82.78
2023-10-10T19:47:56.829Z,82.87
2023-10-10T19:48:56.779Z,82.78
2023-10-10T19:49:56.746Z,83.07
2023-10-10T19:50:56.758Z,82.98
2023-10-10T19:51:56.762Z,83.22
2023-10-10T19:52:56.753Z,83.12
2023-10-10T19:53:56.770Z,83.42
2023-10-10T19:55:05.471Z,83.62
2023-10-10T19:55:56.696Z,83.62
2023-10-10T19:57:07.355Z,83.72
2023-10-10T19:57:56.756Z,83.72
2023-10-10T19:58:56.652Z,83.72
2023-10-10T19:59:56.814Z,83.72
2023-10-10T20:00:56.792Z,83.72
2023-10-10T20:01:56.781Z,83.82
2023-10-10T20:02:56.658Z,83.92
2023-10-10T20:03:56.963Z,84.27
2023-10-10T20:04:56.568Z,84.06
2023-10-10T20:05:56.583Z,84.17
2023-10-10T20:06:56.563Z,84.37
2023-10-10T20:07:56.532Z,84.27
2023-10-10T20:08:56.582Z,84.27
2023-10-10T20:09:56.599Z,84.27
2023-10-10T20:10:56.511Z,84.27
2023-10-10T20:11:56.583Z,84.27
2023-10-10T20:12:56.472Z,84.47
2023-10-10T20:13:56.940Z,84.37
2023-10-10T20:14:56.502Z,84.47
2023-10-10T20:15:56.522Z,84.37
2023-10-10T20:16:56.486Z,84.67
2023-10-10T20:17:56.572Z,84.47
2023-10-10T20:18:58.917Z,84.47
2023-10-10T20:19:56.424Z,84.37
2023-10-10T20:20:56.440Z,84.27
2023-10-10T20:21:56.457Z,84.47
2023-10-10T20:22:56.408Z,84.47
2023-10-10T20:23:56.435Z,84.67
2023-10-10T20:24:56.654Z,84.57
2023-10-10T20:25:56.444Z,84.47
2023-10-10T20:26:56.395Z,84.67
2023-10-10T20:27:56.421Z,84.67
2023-10-10T20:28:56.424Z,84.57
2023-10-10T20:29:56.506Z,84.47
2023-10-10T20:30:56.424Z,84.37
2023-10-10T20:31:58.475Z,84.57
2023-10-10T20:32:56.476Z,84.47
2023-10-10T20:33:56.555Z,84.57
2023-10-10T20:34:56.326Z,84.77
2023-10-10T20:35:56.316Z,84.61
2023-10-10T20:36:56.384Z,84.71
2023-10-10T20:37:56.247Z,84.57
2023-10-10T20:38:56.282Z,84.47
2023-10-10T20:39:56.268Z,84.81
2023-10-10T20:40:56.213Z,84.71
2023-10-10T20:41:57.182Z,84.91
2023-10-10T20:42:56.167Z,84.91
2023-10-10T20:43:56.264Z,84.91
2023-10-10T20:44:56.162Z,84.91
2023-10-10T20:46:06.994Z,84.91
2023-10-10T20:47:08.673Z,85.02
2023-10-10T20:49:19.506Z,85.02
2023-10-10T20:50:18.652Z,84.91
2023-10-10T20:51:10.153Z,85.02
2023-10-10T20:52:09.627Z,85.11
2023-10-10T20:53:09.613Z,85.31
2023-10-10T20:54:09.604Z,85.42
2023-10-10T20:55:09.535Z,85.52
2023-10-10T20:56:09.517Z,85.31
2023-10-10T20:57:09.624Z,85.42
2023-10-10T20:58:09.574Z,85.52
2023-10-10T20:59:09.505Z,85.42
2023-10-10T21:00:09.511Z,85.82
2023-10-10T21:01:09.574Z,85.82
2023-10-10T21:02:09.459Z,86.16
2023-10-10T21:03:09.651Z,85.66
2023-10-10T21:04:09.585Z,85.76
2023-10-10T21:05:09.470Z,85.86
2023-10-10T21:06:09.681Z,85.56
2023-10-10T21:07:09.416Z,85.76
2023-10-10T21:08:09.438Z,85.86
2023-10-10T21:09:09.627Z,85.76
2023-10-10T21:10:09.580Z,85.76
2023-10-10T21:11:09.399Z,85.86
2023-10-10T21:12:09.463Z,85.66
2023-10-10T21:13:09.400Z,85.66
2023-10-10T21:14:09.425Z,85.76
2023-10-10T21:15:09.466Z,85.46
2023-10-10T21:16:09.452Z,85.66
2023-10-10T21:17:09.340Z,85.46
2023-10-10T21:18:09.953Z,85.25
2023-10-10T21:19:09.288Z,85.05
2023-10-10T21:20:09.314Z,85.05
2023-10-10T21:21:09.427Z,84.95
2023-10-10T21:22:09.287Z,85.05
2023-10-10T21:23:09.268Z,84.85
2023-10-10T21:24:09.312Z,85.05
2023-10-10T21:25:09.229Z,84.85
2023-10-10T21:26:09.287Z,84.85
2023-10-10T21:27:09.282Z,84.85
2023-10-10T21:28:09.352Z,84.65
2023-10-10T21:29:09.202Z,84.85
2023-10-10T21:30:09.247Z,84.95
2023-10-10T21:31:09.315Z,85.05
2023-10-10T21:32:09.180Z,84.95
2023-10-10T21:33:09.334Z,84.65
2023-10-10T21:34:09.292Z,84.65
2023-10-10T21:35:09.148Z,84.85
2023-10-10T21:36:09.211Z,84.85
2023-10-10T21:37:09.117Z,84.75
2023-10-10T21:38:09.177Z,84.95
2023-10-10T21:39:09.202Z,84.95
2023-10-10T21:40:09.078Z,84.85
2023-10-10T21:41:09.064Z,85.16
2023-10-10T21:42:09.297Z,85.36
2023-10-10T21:43:09.068Z,85.05
2023-10-10T21:44:09.070Z,85.16
2023-10-10T21:45:09.113Z,84.75
2023-10-10T21:46:09.664Z,84.45
2023-10-10T21:47:09.083Z,84.65
2023-10-10T21:48:09.170Z,84.65
2023-10-10T21:49:09.142Z,84.55
2023-10-10T21:50:08.997Z,84.34
2023-10-10T21:51:09.055Z,84.34
2023-10-10T21:52:09.010Z,84.45
2023-10-10T21:53:08.991Z,84.45
2023-10-10T21:54:09.045Z,84.65
2023-10-10T21:55:08.910Z,84.55
2023-10-10T21:56:08.947Z,84.45
2023-10-10T21:57:08.991Z,84.65
2023-10-10T21:58:08.935Z,84.45
2023-10-10T21:59:08.903Z,84.55
2023-10-10T22:00:08.885Z,84.55
2023-10-10T22:01:08.880Z,84.34
2023-10-10T22:02:08.989Z,84.25
2023-10-10T22:03:08.997Z,84.34
2023-10-10T22:04:09.116Z,84.45
2023-10-10T22:05:08.810Z,84.55
2023-10-10T22:06:08.841Z,84.55
2023-10-10T22:07:19.392Z,84.55
2023-10-10T22:08:08.817Z,84.55
2023-10-10T22:09:08.875Z,84.65
2023-10-10T22:10:08.882Z,84.75
2023-10-10T22:11:08.778Z,84.85
2023-10-10T22:12:08.768Z,84.75
2023-10-10T22:13:08.858Z,84.55
2023-10-10T22:14:08.740Z,84.25
2023-10-10T22:15:09.122Z,84.34
2023-10-10T22:16:08.726Z,84.45
2023-10-10T22:17:08.891Z,85.05
2023-10-10T22:18:08.947Z,84.89
2023-10-10T22:19:08.831Z,84.55
2023-10-10T22:20:08.675Z,84.79
2023-10-10T22:21:08.790Z,84.79
2023-10-10T22:22:08.702Z,85.10
2023-10-10T22:23:08.637Z,85.19
2023-10-10T22:24:08.662Z,85.39
2023-10-10T22:25:08.620Z,84.99
2023-10-10T22:26:08.606Z,84.89
2023-10-10T22:27:08.717Z,84.69
2023-10-10T22:28:08.615Z,84.69
2023-10-10T22:29:08.601Z,84.59
2023-10-10T22:30:08.570Z,84.89
2023-10-10T22:31:08.548Z,84.79
2023-10-10T22:32:08.564Z,84.79
2023-10-10T22:33:08.903Z,84.59
2023-10-10T22:34:08.500Z,84.69
2023-10-10T22:35:08.523Z,84.85
2023-10-10T22:36:08.589Z,84.59
2023-10-10T22:37:09.013Z,84.79
2023-10-10T22:38:08.463Z,84.65
2023-10-10T22:39:08.681Z,84.34
2023-10-10T22:40:08.452Z,84.25
2023-10-10T22:41:08.552Z,84.45
2023-10-10T22:42:08.584Z,84.14
2023-10-10T22:43:08.420Z,84.14
2023-10-10T22:44:08.441Z,84.34
2023-10-10T22:45:08.538Z,84.14
2023-10-10T22:46:08.439Z,83.94
2023-10-10T22:47:08.689Z,83.94
2023-10-10T22:48:08.586Z,84.14
2023-10-10T22:49:08.476Z,84.34
2023-10-10T22:50:08.334Z,84.14
2023-10-10T22:51:08.441Z,84.25
2023-10-10T22:52:08.451Z,84.14
2023-10-10T22:53:08.297Z,84.14
2023-10-10T22:54:08.312Z,84.19
2023-10-10T22:55:08.311Z,84.28
2023-10-10T22:56:08.340Z,84.28
2023-10-10T22:57:08.392Z,84.45
2023-10-10T22:58:09.173Z,84.59
2023-10-10T22:59:08.271Z,84.59
2023-10-10T23:00:08.298Z,84.39
2023-10-10T23:01:08.292Z,84.48
2023-10-10T23:02:08.234Z,84.69
2023-10-10T23:03:08.386Z,84.69
2023-10-10T23:04:08.377Z,84.89
2023-10-10T23:05:08.184Z,84.89
2023-10-10T23:06:08.185Z,84.99
2023-10-10T23:07:08.177Z,84.79
2023-10-10T23:08:08.249Z,84.89
2023-10-10T23:09:08.251Z,84.79
2023-10-10T23:10:08.351Z,84.69
2023-10-10T23:11:08.151Z,85.10
2023-10-10T23:12:08.150Z,84.89
2023-10-10T23:13:08.119Z,84.79
2023-10-10T23:14:08.161Z,84.99
2023-10-10T23:15:08.250Z,84.79
2023-10-10T23:16:08.081Z,84.69
2023-10-10T23:17:08.061Z,84.89
2023-10-10T23:18:08.089Z,84.99
2023-10-10T23:19:08.056Z,84.79
2023-10-10T23:20:08.032Z,84.79
2023-10-10T23:21:08.059Z,84.79
2023-10-10T23:22:08.013Z,85.30
2023-10-10T23:23:07.980Z,85.70
2023-10-10T23:24:07.992Z,85.19
2023-10-10T23:25:08.002Z,85.39
2023-10-10T23:26:07.949Z,85.10
2023-10-10T23:27:08.007Z,84.99
2023-10-10T23:28:07.924Z,85.10
2023-10-10T23:29:07.941Z,85.19
2023-10-10T23:30:07.983Z,85.19
2023-10-10T23:31:07.928Z,85.19
2023-10-10T23:32:07.911Z,85.50
2023-10-10T23:33:07.999Z,86.45
2023-10-10T23:34:07.888Z,85.94
2023-10-10T23:35:07.844Z,86.15
2023-10-10T23:36:08.046Z,85.74
2023-10-10T23:37:07.828Z,85.64
2023-10-10T23:38:07.841Z,85.84
2023-10-10T23:39:07.906Z,85.94
2023-10-10T23:40:07.837Z,85.74
2023-10-10T23:41:07.817Z,85.94
2023-10-10T23:42:07.846Z,85.74
2023-10-10T23:43:07.758Z,85.64
2023-10-10T23:44:07.757Z,85.64
2023-10-10T23:45:07.951Z,85.64
2023-10-10T23:46:07.929Z,85.64
2023-10-10T23:47:07.761Z,85.54
2023-10-10T23:48:07.775Z,85.54
2023-10-10T23:49:07.779Z,85.50
2023-10-10T23:50:07.683Z,85.39
2023-10-10T23:51:08.006Z,85.30
2023-10-10T23:52:07.723Z,85.10
2023-10-10T23:53:07.694Z,85.19
2023-10-10T23:54:07.723Z,85.30
2023-10-10T23:55:07.727Z,85.30
2023-10-10T23:56:07.629Z,84.99
2023-10-10T23:57:07.826Z,84.89
2023-10-10T23:58:07.626Z,85.19
2023-10-10T23:59:07.602Z,84.99
